Time;durP1;ratioP1;P1;durP2;ratioP2;P2;SDS_P1;SDS_P2;PMS_P1;PMS_P2;Temp;Humidity;BMP_temperature;BMP_pressure;BME280_temperature;BME280_humidity;BME280_pressure;Samples;Min_cycle;Max_cycle;Signal;HPM_P1;HPM_P2
2023/05/29 00:01:41;;;;;;;6.70;4.70;;;17.90;84.30;;;;;;10384835;28;20252;-84
2023/05/29 00:06:43;;;;;;;5.70;5.27;;;17.80;82.90;;;;;;10358000;28;20588;-84
2023/05/29 00:11:50;;;;;;;6.33;5.80;;;17.70;83.70;;;;;;10380287;28;20258;-85
2023/05/29 00:16:53;;;;;;;7.93;5.97;;;17.70;83.60;;;;;;10387411;28;20302;-84
2023/05/29 00:21:56;;;;;;;6.03;5.40;;;17.70;81.90;;;;;;10395469;28;20673;-84
2023/05/29 00:26:58;;;;;;;6.10;5.43;;;17.60;83.20;;;;;;10378800;28;20222;-85
2023/05/29 00:32:01;;;;;;;6.33;5.43;;;17.60;83.30;;;;;;10397492;28;20199;-85
2023/05/29 00:37:04;;;;;;;6.20;5.70;;;17.50;83.10;;;;;;10361843;28;20645;-85
2023/05/29 00:42:07;;;;;;;6.60;5.93;;;17.50;83.80;;;;;;10382240;28;20213;-84
2023/05/29 00:47:11;;;;;;;5.97;5.50;;;17.50;83.40;;;;;;10407608;28;20589;-84
2023/05/29 00:52:13;;;;;;;7.23;6.53;;;17.50;82.70;;;;;;10389772;28;20206;-85
2023/05/29 00:57:17;;;;;;;7.20;5.90;;;17.40;84.00;;;;;;10389915;28;20219;-84
2023/05/29 01:02:22;;;;;;;7.33;6.60;;;17.30;84.20;;;;;;10401646;28;20203;-84
2023/05/29 01:07:24;;;;;;;7.20;6.50;;;17.30;84.80;;;;;;10355459;28;20237;-84
2023/05/29 01:12:34;;;;;;;6.60;6.00;;;17.20;85.20;;;;;;10434298;28;20199;-84
2023/05/29 01:17:48;;;;;;;6.90;6.20;;;17.20;85.20;;;;;;10416098;28;20216;-84
2023/05/29 01:23:09;;;;;;;10.33;6.70;;;17.10;85.50;;;;;;10415718;28;20210;-84
2023/05/29 01:28:16;;;;;;;7.10;6.43;;;17.10;86.00;;;;;;10415876;28;20229;-84
2023/05/29 01:33:18;;;;;;;7.63;6.77;;;17.00;85.50;;;;;;10392152;28;20207;-84
2023/05/29 01:38:20;;;;;;;7.13;6.43;;;17.00;85.50;;;;;;10374917;28;20625;-85
2023/05/29 01:43:24;;;;;;;6.90;6.20;;;17.00;86.60;;;;;;10417532;28;20226;-84
2023/05/29 01:48:26;;;;;;;6.23;5.67;;;16.90;86.10;;;;;;10398981;28;20265;-84
2023/05/29 01:53:29;;;;;;;6.40;5.73;;;16.90;86.50;;;;;;10382122;28;20226;-84
2023/05/29 01:58:33;;;;;;;7.47;6.77;;;16.80;86.50;;;;;;10399095;28;20294;-84
2023/05/29 02:03:35;;;;;;;7.67;6.23;;;16.80;87.40;;;;;;10405332;28;20277;-84
2023/05/29 02:08:37;;;;;;;7.43;6.23;;;16.70;87.10;;;;;;10387398;28;20230;-84
2023/05/29 02:13:42;;;;;;;7.17;6.43;;;16.70;86.90;;;;;;10397498;28;20222;-84
2023/05/29 02:18:44;;;;;;;9.93;7.00;;;16.70;87.60;;;;;;10398164;28;20209;-84
2023/05/29 02:23:47;;;;;;;6.70;6.00;;;16.60;87.80;;;;;;10413350;28;20230;-84
2023/05/29 02:28:50;;;;;;;7.23;6.40;;;16.60;88.50;;;;;;10396309;28;20233;-84
2023/05/29 02:33:52;;;;;;;6.83;5.93;;;16.50;88.40;;;;;;10412799;28;20252;-84
2023/05/29 02:38:54;;;;;;;7.53;6.23;;;16.50;87.50;;;;;;10412290;28;20282;-84
2023/05/29 02:43:58;;;;;;;6.17;5.67;;;16.40;87.00;;;;;;10395127;28;20568;-84
2023/05/29 02:49:00;;;;;;;7.23;6.60;;;16.40;87.90;;;;;;10411039;28;20241;-85
2023/05/29 02:54:02;;;;;;;6.83;6.23;;;16.30;87.50;;;;;;10395043;28;20219;-85
2023/05/29 02:59:06;;;;;;;7.43;6.57;;;16.30;88.50;;;;;;10393475;28;20198;-84
2023/05/29 03:04:08;;;;;;;7.90;7.10;;;16.30;87.80;;;;;;10406024;28;20218;-84
2023/05/29 03:09:11;;;;;;;7.00;6.00;;;16.20;88.10;;;;;;10392737;28;20229;-84
2023/05/29 03:14:15;;;;;;;7.37;6.70;;;16.20;88.50;;;;;;10408445;28;20223;-84
2023/05/29 03:19:17;;;;;;;7.17;6.57;;;16.10;87.80;;;;;;10392922;28;20195;-84
2023/05/29 03:24:19;;;;;;;7.10;6.50;;;16.10;88.90;;;;;;10421045;22;20249;-86
2023/05/29 03:29:23;;;;;;;7.90;7.10;;;16.10;89.20;;;;;;10387840;28;20227;-86
2023/05/29 03:34:27;;;;;;;7.67;6.90;;;16.10;90.10;;;;;;10350320;28;20218;-86
2023/05/29 03:39:33;;;;;;;6.70;6.07;;;16.00;89.20;;;;;;10356656;28;20202;-86
2023/05/29 03:44:36;;;;;;;7.40;6.67;;;16.00;89.00;;;;;;10378949;28;20233;-87
2023/05/29 03:49:41;;;;;;;6.30;5.70;;;16.00;89.50;;;;;;10363753;28;20219;-86
2023/05/29 03:54:44;;;;;;;10.23;7.73;;;16.00;89.70;;;;;;10373102;28;20231;-86
2023/05/29 03:59:48;;;;;;;9.00;6.27;;;16.00;90.00;;;;;;10352451;28;20582;-86
2023/05/29 04:04:50;;;;;;;7.57;6.33;;;15.90;89.80;;;;;;10346982;28;20231;-87
2023/05/29 04:09:52;;;;;;;7.80;5.73;;;16.00;90.10;;;;;;10376359;28;20671;-86
2023/05/29 04:14:56;;;;;;;5.60;5.07;;;15.90;90.00;;;;;;10372798;28;20255;-86
2023/05/29 04:19:59;;;;;;;6.30;5.70;;;16.00;90.10;;;;;;10343193;28;20202;-87
2023/05/29 04:25:01;;;;;;;8.40;6.30;;;16.00;90.40;;;;;;10364034;28;20226;-87
2023/05/29 04:30:05;;;;;;;7.97;6.10;;;16.00;90.10;;;;;;10391997;28;20314;-87
2023/05/29 04:35:13;;;;;;;7.03;6.43;;;16.00;90.20;;;;;;10374525;28;20323;-86
2023/05/29 04:40:20;;;;;;;6.27;5.77;;;16.00;90.60;;;;;;10379785;28;20207;-86
2023/05/29 04:45:25;;;;;;;9.23;6.10;;;16.00;90.60;;;;;;10353606;28;20227;-86
2023/05/29 04:50:30;;;;;;;6.83;6.23;;;16.00;90.70;;;;;;10370058;28;20210;-87
2023/05/29 04:55:32;;;;;;;9.40;7.20;;;16.10;91.20;;;;;;10369618;28;20510;-86
2023/05/29 05:00:35;;;;;;;9.87;7.20;;;16.10;91.10;;;;;;10396669;28;20203;-87
2023/05/29 05:05:37;;;;;;;7.30;6.57;;;16.10;90.90;;;;;;10352298;28;20285;-86
2023/05/29 05:10:40;;;;;;;8.07;6.87;;;16.20;91.10;;;;;;10366510;28;20721;-86
2023/05/29 05:15:45;;;;;;;7.13;6.53;;;16.20;91.30;;;;;;10399943;28;20226;-87
2023/05/29 05:20:47;;;;;;;9.63;6.70;;;16.30;91.50;;;;;;10374927;28;20250;-87
2023/05/29 05:25:49;;;;;;;7.80;6.30;;;16.30;91.60;;;;;;10363742;28;20231;-86
2023/05/29 05:30:53;;;;;;;7.70;7.00;;;16.40;91.60;;;;;;10384433;28;20309;-86
2023/05/29 05:35:56;;;;;;;6.63;5.90;;;16.40;91.40;;;;;;10375736;28;20226;-86
2023/05/29 05:40:58;;;;;;;7.80;6.37;;;16.50;91.60;;;;;;10380794;28;20199;-86
2023/05/29 05:46:07;;;;;;;6.70;6.10;;;16.50;91.50;;;;;;10361826;28;20226;-87
2023/05/29 05:51:11;;;;;;;6.57;5.97;;;16.60;91.50;;;;;;10346187;28;20218;-86
2023/05/29 05:56:14;;;;;;;6.93;6.07;;;16.70;91.40;;;;;;10347811;28;20265;-86
2023/05/29 06:01:18;;;;;;;6.60;5.90;;;16.80;91.30;;;;;;10380185;28;20200;-87
2023/05/29 06:06:20;;;;;;;6.63;5.87;;;16.90;91.50;;;;;;10361764;28;20226;-86
2023/05/29 06:11:25;;;;;;;5.90;5.30;;;17.00;91.40;;;;;;10380060;28;20219;-87
2023/05/29 06:16:29;;;;;;;7.50;6.33;;;17.10;91.40;;;;;;10360408;28;20584;-87
2023/05/29 06:21:32;;;;;;;8.40;6.80;;;17.20;91.60;;;;;;10397516;28;20199;-87
2023/05/29 06:26:35;;;;;;;7.23;6.23;;;17.30;91.10;;;;;;10348623;28;20231;-87
2023/05/29 06:31:40;;;;;;;6.97;6.00;;;17.50;91.20;;;;;;10386831;28;20227;-87
2023/05/29 06:36:43;;;;;;;6.60;5.90;;;17.70;90.80;;;;;;10342288;28;20702;-86
2023/05/29 06:41:46;;;;;;;6.33;5.73;;;18.10;90.40;;;;;;10359310;28;20229;-85
2023/05/29 06:46:54;;;;;;;6.97;6.27;;;18.40;90.40;;;;;;10353791;28;20234;-86
2023/05/29 06:51:57;;;;;;;8.27;6.50;;;18.80;89.60;;;;;;10375584;28;20226;-86
2023/05/29 06:57:01;;;;;;;7.87;5.57;;;19.10;88.00;;;;;;10395698;28;20222;-87
2023/05/29 07:02:05;;;;;;;5.90;5.40;;;19.50;88.60;;;;;;10358171;28;20201;-87
2023/05/29 07:07:07;;;;;;;6.53;5.37;;;19.80;88.70;;;;;;10359333;28;20230;-87
2023/05/29 07:12:09;;;;;;;5.83;5.33;;;20.10;87.70;;;;;;10395918;28;20277;-87
2023/05/29 07:17:13;;;;;;;6.87;6.27;;;20.40;86.60;;;;;;10373604;28;20222;-87
2023/05/29 07:22:15;;;;;;;6.80;5.40;;;20.70;86.50;;;;;;10340281;28;20206;-87
2023/05/29 07:27:17;;;;;;;7.17;4.70;;;21.00;85.70;;;;;;10395957;28;20230;-86
2023/05/29 07:32:21;;;;;;;6.07;5.47;;;21.50;85.20;;;;;;10338961;28;20227;-87
2023/05/29 07:37:24;;;;;;;6.20;5.70;;;21.90;84.20;;;;;;10309872;28;20720;-87
2023/05/29 07:42:26;;;;;;;5.97;5.47;;;22.40;79.50;;;;;;10329123;28;20596;-86
2023/05/29 07:47:30;;;;;;;5.73;5.13;;;22.80;80.60;;;;;;10350859;28;20219;-87
2023/05/29 07:52:33;;;;;;;6.00;5.40;;;23.40;80.30;;;;;;10334657;28;20254;-87
2023/05/29 07:57:37;;;;;;;5.93;5.00;;;23.90;79.10;;;;;;10335451;28;20655;-87
2023/05/29 08:02:42;;;;;;;5.50;5.10;;;24.30;77.60;;;;;;10348576;28;20277;-87
2023/05/29 08:08:04;;;;;;;5.73;5.23;;;24.80;77.70;;;;;;10346745;28;20281;-87
2023/05/29 08:13:08;;;;;;;5.93;5.40;;;25.30;77.80;;;;;;10352594;28;20203;-87
2023/05/29 08:18:13;;;;;;;5.90;5.30;;;25.70;69.30;;;;;;10338051;28;20230;-87
2023/05/29 08:23:15;;;;;;;5.73;5.23;;;26.00;74.80;;;;;;10363840;28;20675;-87
2023/05/29 08:28:18;;;;;;;7.00;5.70;;;26.30;75.00;;;;;;10371522;28;20231;-87
2023/05/29 08:33:21;;;;;;;6.40;5.80;;;26.50;67.00;;;;;;10343303;28;20581;-87
2023/05/29 08:38:25;;;;;;;5.37;4.93;;;26.70;70.70;;;;;;10370279;28;20234;-87
2023/05/29 08:43:31;;;;;;;5.93;5.43;;;26.80;71.40;;;;;;10350690;28;20199;-87
2023/05/29 08:48:41;;;;;;;6.10;5.60;;;26.90;70.00;;;;;;10367381;28;20218;-87
2023/05/29 08:53:43;;;;;;;9.50;5.70;;;27.00;69.40;;;;;;10379888;28;20706;-88
2023/05/29 08:58:46;;;;;;;6.70;5.10;;;27.10;66.90;;;;;;10369677;28;20214;-86
2023/05/29 09:03:49;;;;;;;6.90;6.27;;;27.30;71.30;;;;;;10378566;28;20354;-86
2023/05/29 09:08:52;;;;;;;6.47;5.97;;;27.60;72.30;;;;;;10366875;28;20246;-86
2023/05/29 09:13:57;;;;;;;5.47;5.03;;;27.70;70.30;;;;;;10366053;28;20262;-86
2023/05/29 09:19:10;;;;;;;6.40;5.70;;;27.90;72.20;;;;;;10380588;28;21050;-85
2023/05/29 09:24:15;;;;;;;7.53;5.43;;;28.10;71.80;;;;;;10375715;28;20317;-85
2023/05/29 09:29:17;;;;;;;5.87;5.37;;;28.10;71.40;;;;;;10319325;28;20228;-85
2023/05/29 09:34:24;;;;;;;8.67;5.10;;;28.20;70.60;;;;;;10324918;28;20326;-86
2023/05/29 09:39:27;;;;;;;6.60;5.40;;;28.30;71.50;;;;;;10289119;28;20238;-86
2023/05/29 09:44:29;;;;;;;5.67;5.17;;;28.40;72.00;;;;;;10320722;28;20228;-85
2023/05/29 09:49:38;;;;;;;6.63;5.47;;;28.50;67.90;;;;;;10359566;28;20204;-85
2023/05/29 09:54:41;;;;;;;5.13;4.73;;;28.60;70.10;;;;;;10357130;28;20223;-84
2023/05/29 09:59:46;;;;;;;5.77;5.27;;;28.60;64.70;;;;;;10263750;28;20205;-86
2023/05/29 10:04:50;;;;;;;6.50;5.23;;;28.60;68.60;;;;;;10315983;28;20695;-86
2023/05/29 10:09:58;;;;;;;5.20;4.80;;;28.80;68.30;;;;;;10360871;28;20226;-86
2023/05/29 10:15:02;;;;;;;6.30;4.90;;;28.90;69.40;;;;;;10359816;28;20224;-87
2023/05/29 10:20:07;;;;;;;5.63;5.00;;;28.90;69.50;;;;;;10359510;28;20608;-85
2023/05/29 10:25:11;;;;;;;7.03;5.93;;;28.70;69.10;;;;;;10373859;28;20223;-84
2023/05/29 10:30:25;;;;;;;4.93;4.53;;;28.20;61.60;;;;;;10379242;28;20222;-85
2023/05/29 10:35:38;;;;;;;4.63;4.30;;;27.60;70.00;;;;;;10394601;28;20228;-85
2023/05/29 10:40:40;;;;;;;6.00;4.90;;;27.00;68.50;;;;;;10380463;28;20428;-85
2023/05/29 10:45:53;;;;;;;4.90;4.50;;;26.50;64.40;;;;;;10380959;28;20230;-85
2023/05/29 10:50:57;;;;;;;5.43;4.60;;;26.10;69.20;;;;;;10379754;28;20210;-86
2023/05/29 10:56:00;;;;;;;6.07;3.97;;;25.70;70.40;;;;;;10393503;28;20223;-86
2023/05/29 11:01:03;;;;;;;5.10;4.70;;;25.40;66.70;;;;;;10382139;28;20724;-86
2023/05/29 11:06:17;;;;;;;5.37;4.73;;;25.10;69.90;;;;;;10351899;28;20227;-85
2023/05/29 11:11:31;;;;;;;5.17;4.77;;;24.80;69.20;;;;;;10342196;28;20219;-86
2023/05/29 11:16:38;;;;;;;5.67;5.07;;;24.50;67.70;;;;;;10384285;28;20772;-86
2023/05/29 11:21:57;;;;;;;6.10;5.50;;;24.40;67.10;;;;;;10403715;28;20198;-85
2023/05/29 11:27:05;;;;;;;5.30;4.80;;;24.30;66.70;;;;;;10345177;28;20226;-87
2023/05/29 11:32:09;;;;;;;6.73;4.90;;;24.10;66.70;;;;;;10343452;28;20218;-86
2023/05/29 11:37:12;;;;;;;4.90;4.50;;;24.00;67.40;;;;;;10354556;28;20238;-85
2023/05/29 11:42:16;;;;;;;10.70;6.67;;;24.00;64.90;;;;;;10358644;28;20202;-85
2023/05/29 11:47:18;;;;;;;5.53;4.87;;;24.00;66.40;;;;;;10357279;28;20310;-86
2023/05/29 11:52:22;;;;;;;6.50;5.00;;;23.80;69.90;;;;;;10383573;28;20253;-86
2023/05/29 11:57:28;;;;;;;7.33;5.17;;;23.80;66.30;;;;;;10372102;28;20330;-87
2023/05/29 12:02:32;;;;;;;4.77;4.00;;;23.80;63.20;;;;;;10342380;28;20338;-87
2023/05/29 12:07:36;;;;;;;4.73;4.33;;;23.70;66.90;;;;;;10345665;28;20265;-86
2023/05/29 12:12:39;;;;;;;4.73;4.33;;;23.70;68.40;;;;;;10379754;28;20230;-87
2023/05/29 12:17:42;;;;;;;6.90;4.53;;;23.60;64.80;;;;;;10381134;28;20223;-86
2023/05/29 12:22:46;;;;;;;4.00;3.60;;;23.60;65.20;;;;;;10380135;28;20203;-85
2023/05/29 12:27:50;;;;;;;5.13;4.27;;;23.70;62.60;;;;;;10376097;28;20468;-87
2023/05/29 12:32:53;;;;;;;4.70;4.03;;;23.70;61.30;;;;;;10351412;28;20626;-87
2023/05/29 12:37:58;;;;;;;9.00;4.90;;;23.70;58.40;;;;;;10337163;28;20215;-86
2023/05/29 12:43:02;;;;;;;6.23;4.47;;;23.80;58.40;;;;;;10342731;28;20191;-84
2023/05/29 12:48:05;;;;;;;4.00;3.70;;;23.60;72.90;;;;;;10338401;28;20254;-85
2023/05/29 12:53:10;;;;;;;5.97;4.03;;;23.00;71.70;;;;;;10337703;28;20219;-85
2023/05/29 12:58:15;;;;;;;5.60;3.50;;;22.90;68.10;;;;;;10340112;28;20227;-86
2023/05/29 13:03:20;;;;;;;5.20;4.70;;;23.10;60.60;;;;;;10337831;28;20715;-86
2023/05/29 13:08:24;;;;;;;4.50;4.10;;;23.20;60.70;;;;;;10304481;28;20204;-85
2023/05/29 13:13:26;;;;;;;5.13;4.63;;;23.40;62.00;;;;;;10320318;28;20627;-86
2023/05/29 13:18:28;;;;;;;4.33;3.93;;;23.50;61.40;;;;;;10320772;28;20287;-86
2023/05/29 13:23:32;;;;;;;5.00;4.50;;;23.60;61.50;;;;;;10306720;28;20663;-86
2023/05/29 13:28:34;;;;;;;5.97;4.73;;;23.60;56.30;;;;;;10395539;28;20277;-86
2023/05/29 13:33:36;;;;;;;5.20;4.67;;;23.80;58.60;;;;;;10353463;28;20275;-86
2023/05/29 13:38:40;;;;;;;8.10;5.50;;;23.80;58.00;;;;;;10380158;28;20208;-86
2023/05/29 13:43:42;;;;;;;4.90;4.50;;;23.90;57.30;;;;;;10328240;28;20257;-85
2023/05/29 13:48:44;;;;;;;4.60;4.20;;;23.90;57.90;;;;;;10334232;28;20283;-85
2023/05/29 13:53:48;;;;;;;4.60;4.30;;;23.90;56.60;;;;;;10337398;28;20799;-85
2023/05/29 13:58:50;;;;;;;4.03;3.70;;;23.90;57.70;;;;;;10343780;28;20235;-85
2023/05/29 14:03:52;;;;;;;4.47;4.07;;;24.00;57.90;;;;;;10340787;28;20273;-85
2023/05/29 14:08:56;;;;;;;4.07;3.67;;;23.90;58.00;;;;;;10315590;28;20212;-85
2023/05/29 14:14:00;;;;;;;4.77;4.30;;;23.90;57.10;;;;;;10383097;28;20223;-86
2023/05/29 14:19:02;;;;;;;4.70;4.30;;;23.90;57.40;;;;;;10400059;28;20551;-87
2023/05/29 14:24:07;;;;;;;4.97;3.80;;;23.90;57.10;;;;;;10308858;28;20235;-83
2023/05/29 14:29:09;;;;;;;4.17;3.87;;;24.00;57.40;;;;;;10283929;28;20229;-83
2023/05/29 14:34:12;;;;;;;4.80;4.50;;;23.90;59.00;;;;;;10360253;28;20231;-80
2023/05/29 14:39:15;;;;;;;6.43;4.50;;;23.90;56.60;;;;;;10392030;28;20201;-82
2023/05/29 14:44:17;;;;;;;4.73;4.33;;;24.00;56.80;;;;;;10347847;28;20275;-82
2023/05/29 14:49:29;;;;;;;7.33;4.30;;;23.90;55.80;;;;;;10362766;28;20228;-81
2023/05/29 14:54:36;;;;;;;5.23;4.73;;;23.90;56.40;;;;;;10366759;28;20219;-82
2023/05/29 14:59:39;;;;;;;5.17;4.67;;;23.80;57.40;;;;;;10288279;28;20200;-82
2023/05/29 15:04:42;;;;;;;3.77;3.47;;;23.70;57.90;;;;;;10355497;28;20427;-82
2023/05/29 15:09:45;;;;;;;4.80;4.03;;;23.70;58.30;;;;;;10350026;28;20227;-81
2023/05/29 15:14:48;;;;;;;4.40;4.00;;;23.80;56.50;;;;;;10364158;28;20587;-81
2023/05/29 15:19:50;;;;;;;4.30;3.90;;;23.90;58.00;;;;;;10399996;28;20222;-81
2023/05/29 15:24:54;;;;;;;5.63;4.30;;;24.00;58.30;;;;;;10417277;22;20717;-85
2023/05/29 15:30:13;;;;;;;4.60;4.20;;;23.90;58.60;;;;;;10374946;28;20218;-86
2023/05/29 15:35:16;;;;;;;4.20;3.90;;;23.90;58.70;;;;;;10351162;28;20238;-87
2023/05/29 15:40:20;;;;;;;4.03;3.73;;;23.90;59.70;;;;;;10337167;28;20202;-86
2023/05/29 15:45:26;;;;;;;4.27;3.93;;;24.00;59.60;;;;;;10347302;28;20543;-85
2023/05/29 15:50:37;;;;;;;3.43;3.23;;;24.00;58.60;;;;;;10294451;28;20241;-85
2023/05/29 15:55:42;;;;;;;4.00;3.63;;;24.00;59.40;;;;;;10389777;28;20740;-84
2023/05/29 16:00:44;;;;;;;4.47;3.63;;;24.00;59.00;;;;;;10341742;28;20202;-85
2023/05/29 16:05:46;;;;;;;4.70;4.30;;;23.90;59.40;;;;;;10353151;28;20219;-85
2023/05/29 16:11:33;;;;;;;4.10;3.70;;;23.90;58.70;;;;;;10407674;28;20222;-85
2023/05/29 16:16:42;;;;;;;4.40;4.03;;;23.90;58.40;;;;;;10309256;28;20257;-85
2023/05/29 16:21:44;;;;;;;3.97;3.67;;;24.00;57.40;;;;;;10341931;28;20639;-84
2023/05/29 16:26:46;;;;;;;4.40;4.10;;;24.10;56.10;;;;;;10352155;28;20360;-84
2023/05/29 16:31:50;;;;;;;4.60;3.40;;;24.10;57.30;;;;;;10386121;28;20277;-85
2023/05/29 16:36:54;;;;;;;3.67;3.37;;;24.00;58.20;;;;;;10361731;28;20690;-85
2023/05/29 16:41:59;;;;;;;3.83;3.53;;;23.90;58.50;;;;;;10398326;28;20283;-85
2023/05/29 16:47:12;;;;;;;3.70;3.40;;;23.80;58.60;;;;;;10351696;28;20223;-86
2023/05/29 16:52:19;;;;;;;3.33;3.10;;;23.80;58.30;;;;;;10370933;28;20581;-86
2023/05/29 16:57:22;;;;;;;4.20;3.83;;;23.80;57.20;;;;;;10380739;28;20223;-86
2023/05/29 17:02:25;;;;;;;3.43;3.23;;;23.70;58.00;;;;;;10341956;28;20200;-87
2023/05/29 17:07:28;;;;;;;3.30;3.00;;;23.70;59.00;;;;;;10345957;28;20318;-84
2023/05/29 17:12:30;;;;;;;4.00;3.70;;;23.70;57.60;;;;;;10361321;28;20249;-86
2023/05/29 17:17:34;;;;;;;3.70;3.40;;;23.70;58.70;;;;;;10375788;28;20219;-85
2023/05/29 17:22:53;;;;;;;3.60;3.30;;;23.70;57.90;;;;;;10355406;28;20435;-87
2023/05/29 17:27:59;;;;;;;3.80;3.50;;;23.70;58.30;;;;;;10347228;28;20234;-86
2023/05/29 17:33:03;;;;;;;4.27;3.97;;;23.70;58.40;;;;;;10356357;28;20227;-87
2023/05/29 17:38:05;;;;;;;3.70;3.40;;;23.60;58.70;;;;;;10340348;28;20219;-87
2023/05/29 17:43:07;;;;;;;4.63;3.63;;;23.50;59.30;;;;;;10394518;28;20194;-87
2023/05/29 17:48:11;;;;;;;5.63;5.10;;;23.40;59.40;;;;;;10345897;28;20215;-87
2023/05/29 17:53:13;;;;;;;16.97;15.33;;;23.30;59.20;;;;;;10385438;28;20306;-87
2023/05/29 17:58:15;;;;;;;7.53;6.77;;;23.20;59.50;;;;;;10393205;28;20683;-87
2023/05/29 18:03:19;;;;;;;5.07;4.63;;;23.20;59.70;;;;;;10340263;28;20625;-85
2023/05/29 18:08:21;;;;;;;10.87;9.80;;;23.20;59.60;;;;;;10347853;28;20293;-86
2023/05/29 18:13:23;;;;;;;6.80;6.20;;;23.20;60.20;;;;;;10355849;28;20230;-86
2023/05/29 18:18:26;;;;;;;5.57;5.07;;;23.10;59.80;;;;;;10363010;28;20223;-85
2023/05/29 18:23:29;;;;;;;6.77;4.70;;;23.00;59.70;;;;;;10329682;28;20693;-86
2023/05/29 18:28:32;;;;;;;4.97;4.47;;;22.90;58.80;;;;;;10352318;28;20275;-85
2023/05/29 18:33:36;;;;;;;4.73;4.33;;;22.80;60.50;;;;;;10384720;28;20243;-86
2023/05/29 18:38:38;;;;;;;5.57;5.07;;;22.70;60.10;;;;;;10360435;28;20223;-85
2023/05/29 18:43:40;;;;;;;4.70;4.30;;;22.60;61.20;;;;;;10345818;28;20191;-86
2023/05/29 18:48:43;;;;;;;4.87;4.37;;;22.60;61.20;;;;;;10326970;28;20219;-86
2023/05/29 18:53:46;;;;;;;4.57;4.17;;;22.50;63.40;;;;;;10372863;28;20656;-86
2023/05/29 18:58:48;;;;;;;6.10;4.60;;;22.40;65.80;;;;;;10387400;28;20707;-86
2023/05/29 19:03:51;;;;;;;3.93;3.63;;;22.30;66.50;;;;;;10336761;28;20287;-86
2023/05/29 19:08:53;;;;;;;4.80;4.40;;;22.10;64.50;;;;;;10340329;28;20211;-85
2023/05/29 19:13:55;;;;;;;5.60;5.10;;;22.00;71.50;;;;;;10351093;28;20755;-85
2023/05/29 19:18:59;;;;;;;6.43;4.90;;;21.90;65.40;;;;;;10335387;28;20201;-85
2023/05/29 19:24:01;;;;;;;5.53;4.60;;;21.80;64.30;;;;;;10344158;28;20195;-85
2023/05/29 19:29:06;;;;;;;5.00;4.50;;;21.70;65.40;;;;;;10370221;28;20567;-85
2023/05/29 19:34:10;;;;;;;5.10;4.37;;;21.70;65.60;;;;;;10386292;28;20644;-85
2023/05/29 19:39:12;;;;;;;4.90;4.40;;;21.60;66.40;;;;;;10348146;28;20214;-85
2023/05/29 19:44:15;;;;;;;5.13;4.63;;;21.50;67.00;;;;;;10341479;28;20783;-85
2023/05/29 19:49:18;;;;;;;4.50;4.10;;;21.40;67.60;;;;;;10380622;28;20202;-86
2023/05/29 19:54:21;;;;;;;5.23;4.83;;;21.30;67.90;;;;;;10327444;28;20715;-86
2023/05/29 19:59:23;;;;;;;7.00;4.80;;;21.20;68.10;;;;;;10332801;28;20259;-85
2023/05/29 20:04:30;;;;;;;6.40;5.07;;;21.10;69.10;;;;;;10367398;28;20262;-85
2023/05/29 20:09:32;;;;;;;5.40;4.90;;;20.90;68.30;;;;;;10353851;28;20679;-86
2023/05/29 20:14:36;;;;;;;6.10;5.40;;;20.80;69.20;;;;;;10343607;28;20242;-85
2023/05/29 20:19:46;;;;;;;5.27;4.87;;;20.70;70.00;;;;;;10349677;28;20211;-85
2023/05/29 20:24:51;;;;;;;7.03;5.33;;;20.60;70.40;;;;;;10383016;28;20710;-85
2023/05/29 20:29:54;;;;;;;6.33;5.57;;;20.50;70.50;;;;;;10366923;28;20214;-85
2023/05/29 20:34:57;;;;;;;5.70;5.10;;;20.40;70.10;;;;;;10347803;28;20326;-87
2023/05/29 20:40:00;;;;;;;5.90;4.87;;;20.30;70.40;;;;;;10357416;28;20219;-87
2023/05/29 20:45:02;;;;;;;4.93;4.57;;;20.30;70.70;;;;;;10338938;28;20246;-87
2023/05/29 20:50:07;;;;;;;5.80;5.00;;;20.20;70.40;;;;;;10369628;28;20195;-87
2023/05/29 20:55:09;;;;;;;5.67;5.10;;;20.10;71.20;;;;;;10351120;28;20319;-87
2023/05/29 21:00:12;;;;;;;4.70;4.20;;;20.00;71.50;;;;;;10389107;28;20230;-87
2023/05/29 21:05:17;;;;;;;9.93;6.40;;;20.00;72.30;;;;;;10367118;28;20230;-87
2023/05/29 21:10:19;;;;;;;5.70;5.10;;;19.90;71.70;;;;;;10348955;28;20222;-87
2023/05/29 21:15:21;;;;;;;7.70;5.30;;;19.80;72.40;;;;;;10422262;28;20234;-86
2023/05/29 21:20:25;;;;;;;5.90;4.60;;;19.70;72.20;;;;;;10394650;28;20194;-87
2023/05/29 21:25:27;;;;;;;5.67;4.87;;;19.70;72.80;;;;;;10391462;28;20301;-87
2023/05/29 21:30:29;;;;;;;5.57;5.07;;;19.60;72.50;;;;;;10342895;28;20207;-87
2023/05/29 21:35:33;;;;;;;5.43;4.63;;;19.60;72.30;;;;;;10377927;28;20222;-88
2023/05/29 21:40:35;;;;;;;6.27;4.80;;;19.50;73.30;;;;;;10347000;28;20609;-87
2023/05/29 21:45:37;;;;;;;7.20;5.70;;;19.40;72.80;;;;;;10391807;28;20297;-87
2023/05/29 21:50:40;;;;;;;5.20;4.70;;;19.40;72.50;;;;;;10392431;28;20206;-88
2023/05/29 21:55:42;;;;;;;5.40;4.93;;;19.30;72.70;;;;;;10348191;28;20227;-87
2023/05/29 22:00:45;;;;;;;5.60;5.10;;;19.20;72.90;;;;;;10375595;28;20577;-88
2023/05/29 22:05:48;;;;;;;6.20;5.17;;;19.20;72.70;;;;;;10370261;28;20652;-88
2023/05/29 22:10:51;;;;;;;6.37;5.60;;;19.10;73.80;;;;;;10348413;28;20203;-88
2023/05/29 22:15:53;;;;;;;5.50;5.00;;;19.10;73.30;;;;;;10358302;28;20285;-88
2023/05/29 22:20:56;;;;;;;6.30;5.07;;;19.00;73.40;;;;;;10324800;28;20211;-88
2023/05/29 22:25:59;;;;;;;7.10;5.30;;;18.90;74.70;;;;;;10366819;28;20615;-88
2023/05/29 22:31:01;;;;;;;5.20;4.80;;;18.90;74.00;;;;;;10374494;28;20211;-87
2023/05/29 22:36:06;;;;;;;5.63;5.13;;;18.80;73.60;;;;;;10363522;28;20234;-87
2023/05/29 22:41:08;;;;;;;5.83;5.20;;;18.80;73.90;;;;;;10376836;28;20203;-88
2023/05/29 22:46:10;;;;;;;5.13;4.63;;;18.70;74.00;;;;;;10362985;28;20645;-88
2023/05/29 22:51:15;;;;;;;5.17;4.67;;;18.60;73.90;;;;;;10348542;28;20223;-88
2023/05/29 22:56:17;;;;;;;5.70;5.17;;;18.60;74.20;;;;;;10343954;28;20599;-88
2023/05/29 23:01:19;;;;;;;6.30;5.33;;;18.70;74.70;;;;;;10369643;28;20249;-88
2023/05/29 23:06:22;;;;;;;5.47;4.93;;;18.70;74.10;;;;;;10348631;28;20313;-88
2023/05/29 23:11:25;;;;;;;5.97;5.37;;;18.80;75.00;;;;;;10355798;28;20289;-88
2023/05/29 23:16:28;;;;;;;7.30;5.27;;;18.80;74.10;;;;;;10366717;28;20593;-88
2023/05/29 23:21:31;;;;;;;5.50;5.00;;;18.90;74.20;;;;;;10411861;28;20199;-88
2023/05/29 23:26:33;;;;;;;5.60;5.00;;;18.90;74.10;;;;;;10394654;28;20321;-88
2023/05/29 23:31:36;;;;;;;5.73;5.13;;;18.90;75.20;;;;;;10349835;28;20580;-87
2023/05/29 23:36:39;;;;;;;4.90;4.50;;;18.90;74.80;;;;;;10365771;28;20218;-88
2023/05/29 23:41:42;;;;;;;5.83;4.97;;;18.80;75.20;;;;;;10349379;28;20214;-87
2023/05/29 23:46:45;;;;;;;6.20;5.60;;;18.70;76.30;;;;;;10337614;28;20219;-87
2023/05/29 23:51:49;;;;;;;5.13;4.47;;;18.70;75.90;;;;;;10365382;28;20222;-87
2023/05/29 23:56:51;;;;;;;5.90;5.00;;;18.60;76.50;;;;;;10368057;28;20223;-87
